sensor_id;sensor_type;location;lat;lon;timestamp;P1;durP1;ratioP1;P2;durP2;ratioP2
41141;SDS011;26882;0.000;0.000;2022-07-29T00:01:50;6.10;;;3.20;;
41141;SDS011;26882;0.000;0.000;2022-07-29T00:04:22;5.90;;;3.30;;
41141;SDS011;26882;0.000;0.000;2022-07-29T00:06:54;4.90;;;3.00;;
41141;SDS011;26882;0.000;0.000;2022-07-29T00:09:26;5.30;;;3.30;;
41141;SDS011;26882;0.000;0.000;2022-07-29T00:12:00;6.30;;;3.50;;
41141;SDS011;26882;0.000;0.000;2022-07-29T00:14:32;5.20;;;2.90;;
41141;SDS011;26882;0.000;0.000;2022-07-29T00:17:07;5.20;;;3.40;;
41141;SDS011;26882;0.000;0.000;2022-07-29T00:19:41;6.10;;;3.80;;
41141;SDS011;26882;0.000;0.000;2022-07-29T00:22:14;6.90;;;3.50;;
41141;SDS011;26882;0.000;0.000;2022-07-29T00:24:46;5.80;;;3.60;;
41141;SDS011;26882;0.000;0.000;2022-07-29T00:27:19;5.60;;;3.70;;
41141;SDS011;26882;0.000;0.000;2022-07-29T00:29:51;7.00;;;3.60;;
41141;SDS011;26882;0.000;0.000;2022-07-29T00:32:23;6.40;;;3.30;;
41141;SDS011;26882;0.000;0.000;2022-07-29T00:34:55;5.70;;;3.40;;
41141;SDS011;26882;0.000;0.000;2022-07-29T00:37:45;6.40;;;4.30;;
41141;SDS011;26882;0.000;0.000;2022-07-29T00:40:18;6.40;;;3.30;;
41141;SDS011;26882;0.000;0.000;2022-07-29T00:42:51;6.00;;;3.60;;
41141;SDS011;26882;0.000;0.000;2022-07-29T00:45:26;6.30;;;4.10;;
41141;SDS011;26882;0.000;0.000;2022-07-29T00:47:59;6.10;;;3.40;;
41141;SDS011;26882;0.000;0.000;2022-07-29T00:50:32;6.80;;;3.60;;
41141;SDS011;26882;0.000;0.000;2022-07-29T00:53:06;7.00;;;3.90;;
41141;SDS011;26882;0.000;0.000;2022-07-29T00:55:41;6.70;;;3.70;;
41141;SDS011;26882;0.000;0.000;2022-07-29T00:58:19;6.20;;;3.60;;
41141;SDS011;26882;0.000;0.000;2022-07-29T01:00:52;6.20;;;4.10;;
41141;SDS011;26882;0.000;0.000;2022-07-29T01:03:24;5.80;;;3.30;;
41141;SDS011;26882;0.000;0.000;2022-07-29T01:05:56;7.20;;;3.70;;
41141;SDS011;26882;0.000;0.000;2022-07-29T01:08:31;7.10;;;3.90;;
41141;SDS011;26882;0.000;0.000;2022-07-29T01:11:05;6.10;;;3.60;;
41141;SDS011;26882;0.000;0.000;2022-07-29T01:13:39;6.00;;;4.10;;
41141;SDS011;26882;0.000;0.000;2022-07-29T01:16:15;5.60;;;3.70;;
41141;SDS011;26882;0.000;0.000;2022-07-29T01:18:52;6.10;;;3.40;;
41141;SDS011;26882;0.000;0.000;2022-07-29T01:21:48;6.30;;;3.40;;
41141;SDS011;26882;0.000;0.000;2022-07-29T01:27:41;5.70;;;3.70;;
41141;SDS011;26882;0.000;0.000;2022-07-29T01:30:18;5.40;;;3.60;;
41141;SDS011;26882;0.000;0.000;2022-07-29T01:32:54;5.40;;;3.60;;
41141;SDS011;26882;0.000;0.000;2022-07-29T01:35:35;5.80;;;3.30;;
41141;SDS011;26882;0.000;0.000;2022-07-29T01:38:12;5.60;;;3.30;;
41141;SDS011;26882;0.000;0.000;2022-07-29T01:40:49;5.60;;;3.70;;
41141;SDS011;26882;0.000;0.000;2022-07-29T01:43:32;6.20;;;3.50;;
41141;SDS011;26882;0.000;0.000;2022-07-29T01:48:43;6.30;;;3.60;;
41141;SDS011;26882;0.000;0.000;2022-07-29T01:51:20;6.10;;;3.70;;
41141;SDS011;26882;0.000;0.000;2022-07-29T01:54:02;6.40;;;3.50;;
41141;SDS011;26882;0.000;0.000;2022-07-29T01:56:38;5.20;;;3.20;;
41141;SDS011;26882;0.000;0.000;2022-07-29T01:59:13;5.40;;;3.60;;
41141;SDS011;26882;0.000;0.000;2022-07-29T02:01:50;6.00;;;3.30;;
41141;SDS011;26882;0.000;0.000;2022-07-29T02:04:25;4.90;;;3.20;;
41141;SDS011;26882;0.000;0.000;2022-07-29T02:07:03;5.90;;;3.20;;
41141;SDS011;26882;0.000;0.000;2022-07-29T02:09:37;5.40;;;3.30;;
41141;SDS011;26882;0.000;0.000;2022-07-29T02:12:11;5.50;;;3.10;;
41141;SDS011;26882;0.000;0.000;2022-07-29T02:14:47;5.50;;;3.30;;
41141;SDS011;26882;0.000;0.000;2022-07-29T02:17:23;5.80;;;3.40;;
41141;SDS011;26882;0.000;0.000;2022-07-29T02:19:59;5.00;;;2.90;;
41141;SDS011;26882;0.000;0.000;2022-07-29T02:22:36;5.60;;;3.00;;
41141;SDS011;26882;0.000;0.000;2022-07-29T02:25:10;4.90;;;2.90;;
41141;SDS011;26882;0.000;0.000;2022-07-29T02:27:43;5.50;;;3.10;;
41141;SDS011;26882;0.000;0.000;2022-07-29T02:30:16;5.40;;;3.30;;
41141;SDS011;26882;0.000;0.000;2022-07-29T02:32:49;4.90;;;2.80;;
41141;SDS011;26882;0.000;0.000;2022-07-29T02:35:23;4.90;;;2.90;;
41141;SDS011;26882;0.000;0.000;2022-07-29T02:37:58;5.50;;;3.00;;
41141;SDS011;26882;0.000;0.000;2022-07-29T02:40:56;6.00;;;3.20;;
41141;SDS011;26882;0.000;0.000;2022-07-29T02:43:29;4.90;;;2.50;;
41141;SDS011;26882;0.000;0.000;2022-07-29T02:46:03;5.20;;;3.10;;
41141;SDS011;26882;0.000;0.000;2022-07-29T02:48:41;4.70;;;2.90;;
41141;SDS011;26882;0.000;0.000;2022-07-29T02:51:25;5.60;;;2.60;;
41141;SDS011;26882;0.000;0.000;2022-07-29T02:54:04;5.10;;;2.80;;
41141;SDS011;26882;0.000;0.000;2022-07-29T02:56:39;5.50;;;2.80;;
41141;SDS011;26882;0.000;0.000;2022-07-29T02:59:14;5.10;;;2.60;;
41141;SDS011;26882;0.000;0.000;2022-07-29T03:01:50;4.60;;;2.80;;
41141;SDS011;26882;0.000;0.000;2022-07-29T03:04:24;4.50;;;2.80;;
41141;SDS011;26882;0.000;0.000;2022-07-29T03:06:59;5.40;;;2.90;;
41141;SDS011;26882;0.000;0.000;2022-07-29T03:09:32;4.60;;;2.40;;
41141;SDS011;26882;0.000;0.000;2022-07-29T03:12:07;6.40;;;2.70;;
41141;SDS011;26882;0.000;0.000;2022-07-29T03:14:40;5.20;;;2.70;;
41141;SDS011;26882;0.000;0.000;2022-07-29T03:17:13;6.00;;;2.30;;
41141;SDS011;26882;0.000;0.000;2022-07-29T03:19:45;5.10;;;2.60;;
41141;SDS011;26882;0.000;0.000;2022-07-29T03:22:18;4.50;;;2.40;;
41141;SDS011;26882;0.000;0.000;2022-07-29T03:24:50;5.20;;;2.40;;
41141;SDS011;26882;0.000;0.000;2022-07-29T03:27:23;5.10;;;2.80;;
41141;SDS011;26882;0.000;0.000;2022-07-29T03:29:55;4.50;;;2.50;;
41141;SDS011;26882;0.000;0.000;2022-07-29T03:32:27;4.40;;;2.50;;
41141;SDS011;26882;0.000;0.000;2022-07-29T03:34:59;4.90;;;2.30;;
41141;SDS011;26882;0.000;0.000;2022-07-29T03:37:34;5.00;;;2.60;;
41141;SDS011;26882;0.000;0.000;2022-07-29T03:40:09;5.10;;;2.50;;
41141;SDS011;26882;0.000;0.000;2022-07-29T03:42:43;4.70;;;2.20;;
41141;SDS011;26882;0.000;0.000;2022-07-29T03:45:17;5.40;;;2.70;;
41141;SDS011;26882;0.000;0.000;2022-07-29T03:47:53;4.20;;;2.30;;
41141;SDS011;26882;0.000;0.000;2022-07-29T03:50:28;4.80;;;2.60;;
41141;SDS011;26882;0.000;0.000;2022-07-29T03:53:02;5.80;;;2.60;;
41141;SDS011;26882;0.000;0.000;2022-07-29T03:55:40;4.40;;;2.40;;
41141;SDS011;26882;0.000;0.000;2022-07-29T03:58:14;4.10;;;2.40;;
41141;SDS011;26882;0.000;0.000;2022-07-29T04:03:17;4.40;;;2.30;;
41141;SDS011;26882;0.000;0.000;2022-07-29T04:06:01;4.70;;;2.30;;
41141;SDS011;26882;0.000;0.000;2022-07-29T04:08:35;4.50;;;2.50;;
41141;SDS011;26882;0.000;0.000;2022-07-29T04:11:11;4.70;;;2.40;;
41141;SDS011;26882;0.000;0.000;2022-07-29T04:13:44;4.10;;;2.10;;
41141;SDS011;26882;0.000;0.000;2022-07-29T04:16:16;5.00;;;2.10;;
41141;SDS011;26882;0.000;0.000;2022-07-29T04:18:52;4.40;;;2.40;;
41141;SDS011;26882;0.000;0.000;2022-07-29T04:21:28;4.50;;;2.10;;
41141;SDS011;26882;0.000;0.000;2022-07-29T04:24:01;4.70;;;2.20;;
41141;SDS011;26882;0.000;0.000;2022-07-29T04:26:33;3.50;;;1.90;;
41141;SDS011;26882;0.000;0.000;2022-07-29T04:29:06;4.30;;;2.00;;
41141;SDS011;26882;0.000;0.000;2022-07-29T04:31:38;4.10;;;2.00;;
41141;SDS011;26882;0.000;0.000;2022-07-29T04:34:11;4.50;;;2.20;;
41141;SDS011;26882;0.000;0.000;2022-07-29T04:36:43;4.90;;;2.50;;
41141;SDS011;26882;0.000;0.000;2022-07-29T04:39:15;4.20;;;2.20;;
41141;SDS011;26882;0.000;0.000;2022-07-29T04:41:48;3.80;;;2.00;;
41141;SDS011;26882;0.000;0.000;2022-07-29T04:44:20;4.70;;;2.10;;
41141;SDS011;26882;0.000;0.000;2022-07-29T04:46:52;4.00;;;2.20;;
41141;SDS011;26882;0.000;0.000;2022-07-29T04:49:27;4.20;;;2.00;;
41141;SDS011;26882;0.000;0.000;2022-07-29T04:51:59;4.20;;;2.00;;
41141;SDS011;26882;0.000;0.000;2022-07-29T04:54:31;3.50;;;1.70;;
41141;SDS011;26882;0.000;0.000;2022-07-29T04:57:04;3.70;;;2.00;;
41141;SDS011;26882;0.000;0.000;2022-07-29T04:59:37;4.10;;;1.90;;
41141;SDS011;26882;0.000;0.000;2022-07-29T05:02:10;5.10;;;2.10;;
41141;SDS011;26882;0.000;0.000;2022-07-29T05:04:45;4.70;;;1.90;;
41141;SDS011;26882;0.000;0.000;2022-07-29T05:07:20;4.30;;;1.80;;
41141;SDS011;26882;0.000;0.000;2022-07-29T05:09:53;5.50;;;1.80;;
41141;SDS011;26882;0.000;0.000;2022-07-29T05:14:57;4.40;;;1.70;;
41141;SDS011;26882;0.000;0.000;2022-07-29T05:17:29;3.20;;;1.80;;
41141;SDS011;26882;0.000;0.000;2022-07-29T05:20:02;3.80;;;2.10;;
41141;SDS011;26882;0.000;0.000;2022-07-29T05:22:37;5.10;;;2.00;;
41141;SDS011;26882;0.000;0.000;2022-07-29T05:25:10;4.20;;;2.00;;
41141;SDS011;26882;0.000;0.000;2022-07-29T05:27:42;3.80;;;1.50;;
41141;SDS011;26882;0.000;0.000;2022-07-29T05:30:15;4.40;;;2.10;;
41141;SDS011;26882;0.000;0.000;2022-07-29T05:35:19;4.60;;;1.60;;
41141;SDS011;26882;0.000;0.000;2022-07-29T05:37:52;3.70;;;1.60;;
41141;SDS011;26882;0.000;0.000;2022-07-29T05:40:24;4.00;;;1.50;;
41141;SDS011;26882;0.000;0.000;2022-07-29T05:42:57;3.30;;;1.50;;
41141;SDS011;26882;0.000;0.000;2022-07-29T05:45:29;4.20;;;1.70;;
41141;SDS011;26882;0.000;0.000;2022-07-29T05:48:05;4.00;;;1.70;;
41141;SDS011;26882;0.000;0.000;2022-07-29T05:50:38;3.90;;;1.50;;
41141;SDS011;26882;0.000;0.000;2022-07-29T05:53:10;5.50;;;1.90;;
41141;SDS011;26882;0.000;0.000;2022-07-29T05:55:43;3.30;;;1.60;;
41141;SDS011;26882;0.000;0.000;2022-07-29T05:58:15;4.20;;;1.70;;
41141;SDS011;26882;0.000;0.000;2022-07-29T06:00:47;3.80;;;1.60;;
41141;SDS011;26882;0.000;0.000;2022-07-29T06:03:20;3.90;;;1.30;;
41141;SDS011;26882;0.000;0.000;2022-07-29T06:05:52;3.60;;;1.50;;
41141;SDS011;26882;0.000;0.000;2022-07-29T06:08:25;5.30;;;1.40;;
41141;SDS011;26882;0.000;0.000;2022-07-29T06:11:00;4.00;;;1.70;;
41141;SDS011;26882;0.000;0.000;2022-07-29T06:13:32;2.80;;;1.30;;
41141;SDS011;26882;0.000;0.000;2022-07-29T06:16:07;3.60;;;1.10;;
41141;SDS011;26882;0.000;0.000;2022-07-29T06:18:40;3.10;;;1.20;;
41141;SDS011;26882;0.000;0.000;2022-07-29T06:21:15;2.90;;;1.20;;
41141;SDS011;26882;0.000;0.000;2022-07-29T06:23:47;3.50;;;1.40;;
41141;SDS011;26882;0.000;0.000;2022-07-29T06:26:20;2.40;;;1.10;;
41141;SDS011;26882;0.000;0.000;2022-07-29T06:28:52;2.70;;;1.20;;
41141;SDS011;26882;0.000;0.000;2022-07-29T06:31:24;3.80;;;1.30;;
41141;SDS011;26882;0.000;0.000;2022-07-29T06:33:57;3.70;;;1.20;;
41141;SDS011;26882;0.000;0.000;2022-07-29T06:36:35;4.00;;;1.20;;
41141;SDS011;26882;0.000;0.000;2022-07-29T06:39:13;4.40;;;1.30;;
41141;SDS011;26882;0.000;0.000;2022-07-29T06:41:51;3.40;;;1.30;;
41141;SDS011;26882;0.000;0.000;2022-07-29T06:44:23;5.70;;;1.30;;
41141;SDS011;26882;0.000;0.000;2022-07-29T06:46:55;3.80;;;1.20;;
41141;SDS011;26882;0.000;0.000;2022-07-29T06:49:28;3.40;;;1.20;;
41141;SDS011;26882;0.000;0.000;2022-07-29T06:52:00;3.20;;;1.10;;
41141;SDS011;26882;0.000;0.000;2022-07-29T06:57:08;3.00;;;1.00;;
41141;SDS011;26882;0.000;0.000;2022-07-29T06:59:41;2.70;;;1.20;;
41141;SDS011;26882;0.000;0.000;2022-07-29T07:02:14;1.90;;;0.90;;
41141;SDS011;26882;0.000;0.000;2022-07-29T07:04:46;4.00;;;1.30;;
41141;SDS011;26882;0.000;0.000;2022-07-29T07:07:20;2.40;;;0.90;;
41141;SDS011;26882;0.000;0.000;2022-07-29T07:09:52;2.90;;;1.10;;
41141;SDS011;26882;0.000;0.000;2022-07-29T07:12:25;2.40;;;1.10;;
41141;SDS011;26882;0.000;0.000;2022-07-29T07:14:57;3.50;;;1.10;;
41141;SDS011;26882;0.000;0.000;2022-07-29T07:17:35;2.50;;;1.00;;
41141;SDS011;26882;0.000;0.000;2022-07-29T07:20:11;2.90;;;1.40;;
41141;SDS011;26882;0.000;0.000;2022-07-29T07:22:43;3.00;;;1.20;;
41141;SDS011;26882;0.000;0.000;2022-07-29T07:25:15;2.20;;;0.90;;
41141;SDS011;26882;0.000;0.000;2022-07-29T07:27:48;2.90;;;1.00;;
41141;SDS011;26882;0.000;0.000;2022-07-29T07:30:22;3.40;;;1.00;;
41141;SDS011;26882;0.000;0.000;2022-07-29T07:32:59;3.20;;;1.10;;
41141;SDS011;26882;0.000;0.000;2022-07-29T07:35:31;2.30;;;0.90;;
41141;SDS011;26882;0.000;0.000;2022-07-29T07:38:04;1.90;;;0.90;;
41141;SDS011;26882;0.000;0.000;2022-07-29T07:40:36;3.20;;;1.20;;
41141;SDS011;26882;0.000;0.000;2022-07-29T07:43:09;3.50;;;1.00;;
41141;SDS011;26882;0.000;0.000;2022-07-29T07:45:42;2.90;;;1.20;;
41141;SDS011;26882;0.000;0.000;2022-07-29T07:48:14;2.50;;;1.10;;
41141;SDS011;26882;0.000;0.000;2022-07-29T07:50:47;3.20;;;1.10;;
41141;SDS011;26882;0.000;0.000;2022-07-29T07:53:19;2.00;;;0.90;;
41141;SDS011;26882;0.000;0.000;2022-07-29T07:55:51;2.30;;;1.00;;
41141;SDS011;26882;0.000;0.000;2022-07-29T07:58:24;2.90;;;1.00;;
41141;SDS011;26882;0.000;0.000;2022-07-29T08:00:56;3.00;;;1.20;;
41141;SDS011;26882;0.000;0.000;2022-07-29T08:03:31;2.90;;;1.10;;
41141;SDS011;26882;0.000;0.000;2022-07-29T08:06:05;1.90;;;0.90;;
41141;SDS011;26882;0.000;0.000;2022-07-29T08:08:37;2.50;;;1.10;;
41141;SDS011;26882;0.000;0.000;2022-07-29T08:11:09;3.40;;;1.10;;
41141;SDS011;26882;0.000;0.000;2022-07-29T08:13:42;5.30;;;3.60;;
41141;SDS011;26882;0.000;0.000;2022-07-29T08:16:16;6.10;;;2.70;;
41141;SDS011;26882;0.000;0.000;2022-07-29T08:18:48;4.30;;;2.20;;
41141;SDS011;26882;0.000;0.000;2022-07-29T08:21:21;4.40;;;2.10;;
41141;SDS011;26882;0.000;0.000;2022-07-29T08:23:53;4.10;;;2.10;;
41141;SDS011;26882;0.000;0.000;2022-07-29T08:26:47;4.20;;;2.10;;
41141;SDS011;26882;0.000;0.000;2022-07-29T08:29:19;4.40;;;2.10;;
41141;SDS011;26882;0.000;0.000;2022-07-29T08:31:52;5.00;;;2.10;;
41141;SDS011;26882;0.000;0.000;2022-07-29T08:34:24;5.70;;;2.40;;
41141;SDS011;26882;0.000;0.000;2022-07-29T08:36:56;3.70;;;2.20;;
41141;SDS011;26882;0.000;0.000;2022-07-29T08:39:28;6.10;;;2.40;;
41141;SDS011;26882;0.000;0.000;2022-07-29T08:42:00;4.70;;;2.30;;
41141;SDS011;26882;0.000;0.000;2022-07-29T08:44:34;6.80;;;2.30;;
41141;SDS011;26882;0.000;0.000;2022-07-29T08:47:06;4.90;;;1.90;;
41141;SDS011;26882;0.000;0.000;2022-07-29T08:49:38;6.20;;;2.40;;
41141;SDS011;26882;0.000;0.000;2022-07-29T08:52:12;5.30;;;2.00;;
41141;SDS011;26882;0.000;0.000;2022-07-29T08:54:45;5.10;;;1.80;;
41141;SDS011;26882;0.000;0.000;2022-07-29T08:57:18;5.10;;;2.30;;
41141;SDS011;26882;0.000;0.000;2022-07-29T08:59:51;5.00;;;2.00;;
41141;SDS011;26882;0.000;0.000;2022-07-29T09:02:24;4.20;;;1.70;;
41141;SDS011;26882;0.000;0.000;2022-07-29T09:05:00;4.20;;;1.70;;
41141;SDS011;26882;0.000;0.000;2022-07-29T09:07:33;4.30;;;1.60;;
41141;SDS011;26882;0.000;0.000;2022-07-29T09:10:08;3.80;;;1.50;;
41141;SDS011;26882;0.000;0.000;2022-07-29T09:12:40;5.70;;;1.70;;
41141;SDS011;26882;0.000;0.000;2022-07-29T09:15:13;4.10;;;1.30;;
41141;SDS011;26882;0.000;0.000;2022-07-29T09:17:48;3.80;;;1.40;;
41141;SDS011;26882;0.000;0.000;2022-07-29T09:20:22;3.30;;;1.40;;
41141;SDS011;26882;0.000;0.000;2022-07-29T09:22:54;4.20;;;1.50;;
41141;SDS011;26882;0.000;0.000;2022-07-29T09:25:36;7.40;;;1.50;;
41141;SDS011;26882;0.000;0.000;2022-07-29T09:28:13;4.90;;;1.50;;
41141;SDS011;26882;0.000;0.000;2022-07-29T09:30:53;4.20;;;1.70;;
41141;SDS011;26882;0.000;0.000;2022-07-29T09:33:33;4.90;;;1.90;;
41141;SDS011;26882;0.000;0.000;2022-07-29T09:36:10;4.60;;;1.40;;
41141;SDS011;26882;0.000;0.000;2022-07-29T09:38:42;4.30;;;1.50;;
41141;SDS011;26882;0.000;0.000;2022-07-29T09:41:14;4.50;;;1.30;;
41141;SDS011;26882;0.000;0.000;2022-07-29T09:43:56;5.10;;;1.40;;
41141;SDS011;26882;0.000;0.000;2022-07-29T09:46:29;4.10;;;1.70;;
41141;SDS011;26882;0.000;0.000;2022-07-29T09:49:11;4.10;;;1.60;;
41141;SDS011;26882;0.000;0.000;2022-07-29T09:51:44;3.50;;;1.30;;
41141;SDS011;26882;0.000;0.000;2022-07-29T09:54:24;3.60;;;1.40;;
41141;SDS011;26882;0.000;0.000;2022-07-29T09:56:58;4.20;;;1.50;;
41141;SDS011;26882;0.000;0.000;2022-07-29T09:59:30;4.50;;;1.40;;
41141;SDS011;26882;0.000;0.000;2022-07-29T10:02:02;3.30;;;1.30;;
41141;SDS011;26882;0.000;0.000;2022-07-29T10:04:45;3.90;;;1.50;;
41141;SDS011;26882;0.000;0.000;2022-07-29T10:07:17;4.00;;;1.40;;
41141;SDS011;26882;0.000;0.000;2022-07-29T10:09:55;2.80;;;1.40;;
41141;SDS011;26882;0.000;0.000;2022-07-29T10:12:29;4.50;;;1.40;;
41141;SDS011;26882;0.000;0.000;2022-07-29T10:15:02;3.00;;;1.20;;
41141;SDS011;26882;0.000;0.000;2022-07-29T10:17:35;3.80;;;1.80;;
41141;SDS011;26882;0.000;0.000;2022-07-29T10:20:09;4.40;;;1.60;;
41141;SDS011;26882;0.000;0.000;2022-07-29T10:22:42;5.30;;;1.30;;
41141;SDS011;26882;0.000;0.000;2022-07-29T10:25:17;4.70;;;1.50;;
41141;SDS011;26882;0.000;0.000;2022-07-29T10:27:50;3.50;;;1.30;;
41141;SDS011;26882;0.000;0.000;2022-07-29T10:30:24;3.80;;;1.40;;
41141;SDS011;26882;0.000;0.000;2022-07-29T10:33:02;5.70;;;1.40;;
41141;SDS011;26882;0.000;0.000;2022-07-29T10:35:57;4.20;;;1.40;;
41141;SDS011;26882;0.000;0.000;2022-07-29T10:38:45;3.20;;;1.30;;
41141;SDS011;26882;0.000;0.000;2022-07-29T10:41:37;4.20;;;1.40;;
41141;SDS011;26882;0.000;0.000;2022-07-29T10:44:19;5.20;;;1.50;;
41141;SDS011;26882;0.000;0.000;2022-07-29T10:46:53;7.90;;;1.70;;
41141;SDS011;26882;0.000;0.000;2022-07-29T10:49:25;7.20;;;2.80;;
41141;SDS011;26882;0.000;0.000;2022-07-29T10:52:04;7.40;;;3.60;;
41141;SDS011;26882;0.000;0.000;2022-07-29T10:54:40;6.90;;;3.50;;
41141;SDS011;26882;0.000;0.000;2022-07-29T10:57:22;10.50;;;4.60;;
41141;SDS011;26882;0.000;0.000;2022-07-29T11:00:30;9.60;;;5.40;;
41141;SDS011;26882;0.000;0.000;2022-07-29T11:03:03;11.00;;;5.70;;
41141;SDS011;26882;0.000;0.000;2022-07-29T11:05:55;9.50;;;5.80;;
41141;SDS011;26882;0.000;0.000;2022-07-29T11:08:27;10.10;;;6.10;;
41141;SDS011;26882;0.000;0.000;2022-07-29T11:14:10;8.80;;;4.70;;
41141;SDS011;26882;0.000;0.000;2022-07-29T11:17:01;9.70;;;4.90;;
41141;SDS011;26882;0.000;0.000;2022-07-29T11:19:36;8.70;;;4.70;;
41141;SDS011;26882;0.000;0.000;2022-07-29T11:22:30;7.90;;;4.20;;
41141;SDS011;26882;0.000;0.000;2022-07-29T11:25:16;7.70;;;3.80;;
41141;SDS011;26882;0.000;0.000;2022-07-29T11:27:51;7.50;;;3.90;;
41141;SDS011;26882;0.000;0.000;2022-07-29T11:30:28;7.80;;;3.30;;
41141;SDS011;26882;0.000;0.000;2022-07-29T11:33:31;6.30;;;3.10;;
41141;SDS011;26882;0.000;0.000;2022-07-29T11:36:11;6.80;;;2.70;;
41141;SDS011;26882;0.000;0.000;2022-07-29T11:38:44;5.70;;;2.90;;
41141;SDS011;26882;0.000;0.000;2022-07-29T11:41:25;5.00;;;2.30;;
41141;SDS011;26882;0.000;0.000;2022-07-29T11:43:59;5.10;;;2.10;;
41141;SDS011;26882;0.000;0.000;2022-07-29T11:46:48;4.30;;;2.00;;
41141;SDS011;26882;0.000;0.000;2022-07-29T11:49:24;5.40;;;2.20;;
41141;SDS011;26882;0.000;0.000;2022-07-29T11:51:58;5.00;;;2.00;;
41141;SDS011;26882;0.000;0.000;2022-07-29T11:54:33;6.40;;;2.00;;
41141;SDS011;26882;0.000;0.000;2022-07-29T11:57:07;3.80;;;1.40;;
41141;SDS011;26882;0.000;0.000;2022-07-29T11:59:42;3.80;;;1.60;;
41141;SDS011;26882;0.000;0.000;2022-07-29T12:02:15;4.10;;;1.60;;
41141;SDS011;26882;0.000;0.000;2022-07-29T12:04:51;4.70;;;1.30;;
41141;SDS011;26882;0.000;0.000;2022-07-29T12:07:29;3.00;;;1.40;;
41141;SDS011;26882;0.000;0.000;2022-07-29T12:10:01;3.10;;;1.40;;
41141;SDS011;26882;0.000;0.000;2022-07-29T12:15:20;4.20;;;1.20;;
41141;SDS011;26882;0.000;0.000;2022-07-29T12:17:53;3.40;;;1.20;;
41141;SDS011;26882;0.000;0.000;2022-07-29T12:20:27;4.30;;;1.20;;
41141;SDS011;26882;0.000;0.000;2022-07-29T12:23:04;3.20;;;1.60;;
41141;SDS011;26882;0.000;0.000;2022-07-29T12:25:41;3.00;;;1.10;;
41141;SDS011;26882;0.000;0.000;2022-07-29T12:28:14;2.80;;;1.30;;
41141;SDS011;26882;0.000;0.000;2022-07-29T12:30:49;3.00;;;1.10;;
41141;SDS011;26882;0.000;0.000;2022-07-29T12:33:23;3.30;;;1.30;;
41141;SDS011;26882;0.000;0.000;2022-07-29T12:35:58;3.40;;;1.20;;
41141;SDS011;26882;0.000;0.000;2022-07-29T12:38:31;3.30;;;1.30;;
41141;SDS011;26882;0.000;0.000;2022-07-29T12:41:03;3.40;;;1.00;;
41141;SDS011;26882;0.000;0.000;2022-07-29T12:43:35;2.40;;;1.00;;
41141;SDS011;26882;0.000;0.000;2022-07-29T12:46:14;2.70;;;0.90;;
41141;SDS011;26882;0.000;0.000;2022-07-29T12:48:51;2.70;;;1.10;;
41141;SDS011;26882;0.000;0.000;2022-07-29T12:51:32;2.90;;;1.10;;
41141;SDS011;26882;0.000;0.000;2022-07-29T12:54:07;3.70;;;1.20;;
41141;SDS011;26882;0.000;0.000;2022-07-29T12:56:44;3.80;;;1.30;;
41141;SDS011;26882;0.000;0.000;2022-07-29T12:59:18;2.90;;;1.00;;
41141;SDS011;26882;0.000;0.000;2022-07-29T13:01:51;3.70;;;1.20;;
41141;SDS011;26882;0.000;0.000;2022-07-29T13:04:28;3.20;;;1.20;;
41141;SDS011;26882;0.000;0.000;2022-07-29T13:07:02;5.50;;;1.90;;
41141;SDS011;26882;0.000;0.000;2022-07-29T13:09:40;4.20;;;1.30;;
41141;SDS011;26882;0.000;0.000;2022-07-29T13:12:14;3.90;;;1.50;;
41141;SDS011;26882;0.000;0.000;2022-07-29T13:14:50;4.20;;;1.40;;
41141;SDS011;26882;0.000;0.000;2022-07-29T13:17:24;3.80;;;1.40;;
41141;SDS011;26882;0.000;0.000;2022-07-29T13:20:07;5.30;;;1.60;;
41141;SDS011;26882;0.000;0.000;2022-07-29T13:22:42;6.50;;;1.80;;
41141;SDS011;26882;0.000;0.000;2022-07-29T13:25:25;4.20;;;1.50;;
41141;SDS011;26882;0.000;0.000;2022-07-29T13:28:01;4.40;;;1.30;;
41141;SDS011;26882;0.000;0.000;2022-07-29T13:30:35;4.10;;;1.40;;
41141;SDS011;26882;0.000;0.000;2022-07-29T13:33:10;4.60;;;1.40;;
41141;SDS011;26882;0.000;0.000;2022-07-29T13:35:42;3.70;;;1.20;;
41141;SDS011;26882;0.000;0.000;2022-07-29T13:38:15;3.60;;;1.60;;
41141;SDS011;26882;0.000;0.000;2022-07-29T13:40:47;3.30;;;1.40;;
41141;SDS011;26882;0.000;0.000;2022-07-29T13:43:19;3.80;;;1.20;;
41141;SDS011;26882;0.000;0.000;2022-07-29T13:45:51;3.30;;;1.10;;
41141;SDS011;26882;0.000;0.000;2022-07-29T13:48:22;4.00;;;1.40;;
41141;SDS011;26882;0.000;0.000;2022-07-29T13:50:54;4.60;;;1.50;;
41141;SDS011;26882;0.000;0.000;2022-07-29T13:53:26;4.30;;;1.40;;
41141;SDS011;26882;0.000;0.000;2022-07-29T13:55:58;3.70;;;1.20;;
41141;SDS011;26882;0.000;0.000;2022-07-29T13:58:30;3.80;;;1.20;;
41141;SDS011;26882;0.000;0.000;2022-07-29T14:01:02;4.10;;;1.10;;
41141;SDS011;26882;0.000;0.000;2022-07-29T14:03:34;4.30;;;1.30;;
41141;SDS011;26882;0.000;0.000;2022-07-29T14:06:10;4.50;;;1.20;;
41141;SDS011;26882;0.000;0.000;2022-07-29T14:08:42;4.10;;;1.30;;
41141;SDS011;26882;0.000;0.000;2022-07-29T14:11:14;3.20;;;1.20;;
41141;SDS011;26882;0.000;0.000;2022-07-29T14:13:46;3.60;;;1.20;;
41141;SDS011;26882;0.000;0.000;2022-07-29T14:16:18;4.30;;;1.30;;
41141;SDS011;26882;0.000;0.000;2022-07-29T14:18:50;3.90;;;1.20;;
41141;SDS011;26882;0.000;0.000;2022-07-29T14:21:21;3.90;;;1.30;;
41141;SDS011;26882;0.000;0.000;2022-07-29T14:23:53;2.30;;;1.00;;
41141;SDS011;26882;0.000;0.000;2022-07-29T14:26:25;4.90;;;1.50;;
41141;SDS011;26882;0.000;0.000;2022-07-29T14:28:57;3.80;;;1.30;;
41141;SDS011;26882;0.000;0.000;2022-07-29T14:31:29;3.50;;;1.10;;
41141;SDS011;26882;0.000;0.000;2022-07-29T14:34:01;3.30;;;1.30;;
41141;SDS011;26882;0.000;0.000;2022-07-29T14:36:33;2.50;;;1.10;;
41141;SDS011;26882;0.000;0.000;2022-07-29T14:39:05;3.40;;;0.90;;
41141;SDS011;26882;0.000;0.000;2022-07-29T14:41:38;3.20;;;1.10;;
41141;SDS011;26882;0.000;0.000;2022-07-29T14:44:10;3.30;;;1.10;;
41141;SDS011;26882;0.000;0.000;2022-07-29T14:46:42;3.30;;;1.20;;
41141;SDS011;26882;0.000;0.000;2022-07-29T14:49:13;3.30;;;1.20;;
41141;SDS011;26882;0.000;0.000;2022-07-29T14:51:46;3.10;;;1.00;;
41141;SDS011;26882;0.000;0.000;2022-07-29T14:54:17;3.40;;;1.10;;
41141;SDS011;26882;0.000;0.000;2022-07-29T14:56:50;4.40;;;1.30;;
41141;SDS011;26882;0.000;0.000;2022-07-29T14:59:25;5.00;;;1.20;;
41141;SDS011;26882;0.000;0.000;2022-07-29T15:01:57;4.00;;;1.30;;
41141;SDS011;26882;0.000;0.000;2022-07-29T15:04:29;3.60;;;1.10;;
41141;SDS011;26882;0.000;0.000;2022-07-29T15:07:02;3.60;;;1.20;;
41141;SDS011;26882;0.000;0.000;2022-07-29T15:09:34;3.10;;;1.30;;
41141;SDS011;26882;0.000;0.000;2022-07-29T15:12:07;3.90;;;1.70;;
41141;SDS011;26882;0.000;0.000;2022-07-29T15:14:40;3.80;;;1.40;;
41141;SDS011;26882;0.000;0.000;2022-07-29T15:17:12;4.30;;;1.50;;
41141;SDS011;26882;0.000;0.000;2022-07-29T15:19:44;3.10;;;1.30;;
41141;SDS011;26882;0.000;0.000;2022-07-29T15:22:16;3.60;;;1.40;;
41141;SDS011;26882;0.000;0.000;2022-07-29T15:24:48;3.00;;;1.30;;
41141;SDS011;26882;0.000;0.000;2022-07-29T15:27:20;4.40;;;1.20;;
41141;SDS011;26882;0.000;0.000;2022-07-29T15:29:51;3.90;;;1.00;;
41141;SDS011;26882;0.000;0.000;2022-07-29T15:32:23;3.80;;;1.40;;
41141;SDS011;26882;0.000;0.000;2022-07-29T15:34:55;4.00;;;1.50;;
41141;SDS011;26882;0.000;0.000;2022-07-29T15:37:27;2.30;;;1.10;;
41141;SDS011;26882;0.000;0.000;2022-07-29T15:39:59;5.30;;;1.30;;
41141;SDS011;26882;0.000;0.000;2022-07-29T15:42:31;3.60;;;1.30;;
41141;SDS011;26882;0.000;0.000;2022-07-29T15:45:04;3.20;;;1.20;;
41141;SDS011;26882;0.000;0.000;2022-07-29T15:47:37;3.60;;;1.10;;
41141;SDS011;26882;0.000;0.000;2022-07-29T15:50:09;2.70;;;1.10;;
41141;SDS011;26882;0.000;0.000;2022-07-29T15:52:44;3.50;;;1.30;;
41141;SDS011;26882;0.000;0.000;2022-07-29T15:55:16;3.20;;;1.30;;
41141;SDS011;26882;0.000;0.000;2022-07-29T15:57:48;2.90;;;1.10;;
41141;SDS011;26882;0.000;0.000;2022-07-29T16:00:20;3.20;;;1.20;;
41141;SDS011;26882;0.000;0.000;2022-07-29T16:02:52;2.90;;;1.30;;
41141;SDS011;26882;0.000;0.000;2022-07-29T16:05:24;3.90;;;1.20;;
41141;SDS011;26882;0.000;0.000;2022-07-29T16:10:28;4.10;;;1.40;;